createdAt,value
2022-12-14T00:00:37.355Z,98.24
2022-12-14T00:01:37.335Z,98.14
2022-12-14T00:02:37.443Z,98.09
2022-12-14T00:03:37.373Z,97.92
2022-12-14T00:04:37.323Z,98.03
2022-12-14T00:05:37.286Z,98.03
2022-12-14T00:06:37.279Z,98.03
2022-12-14T00:07:37.288Z,98.14
2022-12-14T00:08:41.662Z,97.92
2022-12-14T00:09:37.288Z,98.03
2022-12-14T00:10:37.246Z,98.03
2022-12-14T00:11:37.214Z,98.03
2022-12-14T00:12:37.212Z,98.03
2022-12-14T00:13:37.197Z,98.14
2022-12-14T00:14:37.262Z,98.03
2022-12-14T00:15:37.275Z,98.14
2022-12-14T00:16:37.174Z,98.03
2022-12-14T00:17:37.154Z,98.14
2022-12-14T00:18:37.150Z,98.03
2022-12-14T00:19:37.202Z,98.14
2022-12-14T00:20:37.138Z,98.14
2022-12-14T00:21:37.114Z,98.18
2022-12-14T00:22:37.123Z,98.14
2022-12-14T00:23:39.115Z,98.03
2022-12-14T00:24:37.178Z,98.14
2022-12-14T00:25:37.069Z,98.14
2022-12-14T00:26:37.062Z,98.03
2022-12-14T00:27:37.049Z,98.03
2022-12-14T00:28:37.056Z,97.81
2022-12-14T00:29:37.101Z,98.03
2022-12-14T00:30:37.041Z,97.81
2022-12-14T00:31:37.153Z,98.03
2022-12-14T00:32:37.013Z,98.03
2022-12-14T00:33:36.987Z,98.03
2022-12-14T00:34:37.064Z,98.03
2022-12-14T00:35:36.965Z,97.92
2022-12-14T00:36:36.977Z,97.92
2022-12-14T00:37:36.948Z,98.03
2022-12-14T00:38:36.920Z,97.92
2022-12-14T00:39:37.045Z,97.61
2022-12-14T00:40:36.905Z,97.92
2022-12-14T00:41:36.916Z,97.61
2022-12-14T00:42:36.883Z,97.81
2022-12-14T00:43:36.882Z,97.92
2022-12-14T00:44:36.863Z,97.61
2022-12-14T00:45:36.854Z,97.81
2022-12-14T00:46:36.912Z,97.61
2022-12-14T00:47:40.703Z,97.61
2022-12-14T00:48:36.828Z,97.92
2022-12-14T00:49:36.816Z,97.71
2022-12-14T00:50:36.796Z,97.81
2022-12-14T00:51:36.808Z,97.71
2022-12-14T00:52:36.773Z,97.81
2022-12-14T00:53:36.778Z,97.88
2022-12-14T00:54:36.756Z,97.81
2022-12-14T00:55:36.767Z,97.67
2022-12-14T00:56:36.754Z,97.81
2022-12-14T00:57:36.721Z,97.77
2022-12-14T00:58:36.725Z,97.77
2022-12-14T00:59:36.814Z,97.67
2022-12-14T01:00:36.723Z,97.77
2022-12-14T01:01:36.939Z,97.88
2022-12-14T01:02:36.695Z,97.88
2022-12-14T01:03:36.747Z,97.71
2022-12-14T01:04:36.647Z,97.67
2022-12-14T01:05:36.655Z,97.92
2022-12-14T01:06:36.703Z,97.67
2022-12-14T01:07:36.641Z,97.77
2022-12-14T01:08:36.604Z,97.67
2022-12-14T01:09:36.591Z,97.71
2022-12-14T01:10:36.583Z,97.67
2022-12-14T01:11:36.585Z,97.77
2022-12-14T01:12:36.581Z,97.88
2022-12-14T01:13:36.597Z,97.56
2022-12-14T01:14:36.538Z,97.88
2022-12-14T01:15:36.587Z,97.61
2022-12-14T01:16:37.407Z,97.77
2022-12-14T01:17:36.507Z,97.81
2022-12-14T01:18:36.498Z,97.67
2022-12-14T01:19:36.643Z,97.77
2022-12-14T01:20:36.484Z,98.09
2022-12-14T01:21:36.488Z,97.88
2022-12-14T01:22:36.448Z,97.56
2022-12-14T01:23:36.448Z,97.77
2022-12-14T01:24:36.428Z,97.92
2022-12-14T01:25:36.419Z,97.88
2022-12-14T01:26:36.418Z,97.92
2022-12-14T01:27:36.395Z,98.14
2022-12-14T01:28:36.388Z,97.71
2022-12-14T01:29:36.376Z,97.67
2022-12-14T01:30:36.365Z,97.67
2022-12-14T01:31:36.427Z,97.56
2022-12-14T01:32:36.360Z,97.67
2022-12-14T01:33:36.326Z,97.56
2022-12-14T01:34:36.316Z,97.67
2022-12-14T01:35:36.329Z,97.56
2022-12-14T01:36:36.320Z,97.67
2022-12-14T01:37:36.389Z,97.88
2022-12-14T01:38:36.286Z,98.09
2022-12-14T01:39:36.447Z,97.71
2022-12-14T01:40:36.362Z,97.71
2022-12-14T01:41:36.326Z,97.71
2022-12-14T01:42:36.241Z,97.67
2022-12-14T01:43:36.218Z,97.67
2022-12-14T01:44:36.222Z,97.67
2022-12-14T01:45:36.194Z,98.09
2022-12-14T01:46:36.313Z,97.67
2022-12-14T01:47:36.173Z,98.09
2022-12-14T01:48:36.231Z,97.61
2022-12-14T01:49:36.150Z,97.67
2022-12-14T01:50:36.250Z,97.81
2022-12-14T01:51:36.143Z,97.67
2022-12-14T01:52:36.211Z,97.92
2022-12-14T01:53:36.102Z,97.81
2022-12-14T01:54:36.153Z,97.81
2022-12-14T01:55:36.107Z,97.81
2022-12-14T01:56:36.266Z,97.92
2022-12-14T01:57:36.059Z,97.71
2022-12-14T01:58:36.178Z,97.61
2022-12-14T01:59:36.039Z,97.61
2022-12-14T02:00:36.179Z,97.81
2022-12-14T02:01:36.114Z,97.61
2022-12-14T02:02:36.496Z,97.61
2022-12-14T02:03:36.046Z,97.61
2022-12-14T02:04:35.986Z,97.81
2022-12-14T02:05:35.996Z,97.61
2022-12-14T02:06:35.967Z,97.61
2022-12-14T02:07:36.032Z,97.92
2022-12-14T02:08:35.945Z,97.81
2022-12-14T02:09:35.957Z,97.92
2022-12-14T02:10:35.925Z,97.61
2022-12-14T02:11:35.911Z,97.61
2022-12-14T02:12:35.937Z,98.03
2022-12-14T02:13:35.886Z,97.92
2022-12-14T02:14:35.875Z,98.03
2022-12-14T02:15:35.900Z,97.92
2022-12-14T02:16:35.918Z,98.03
2022-12-14T02:17:35.844Z,97.92
2022-12-14T02:18:35.836Z,98.07
2022-12-14T02:19:35.851Z,98.03
2022-12-14T02:20:35.804Z,98.07
2022-12-14T02:21:35.803Z,98.03
2022-12-14T02:22:35.803Z,98.03
2022-12-14T02:23:35.821Z,98.07
2022-12-14T02:24:35.803Z,97.97
2022-12-14T02:25:35.776Z,98.07
2022-12-14T02:26:35.773Z,98.07
2022-12-14T02:27:35.729Z,97.92
2022-12-14T02:28:35.760Z,98.07
2022-12-14T02:29:35.708Z,98.07
2022-12-14T02:30:35.699Z,97.97
2022-12-14T02:31:35.781Z,97.86
2022-12-14T02:32:35.678Z,98.07
2022-12-14T02:33:35.685Z,98.07
2022-12-14T02:34:35.665Z,98.28
2022-12-14T02:35:35.685Z,98.18
2022-12-14T02:36:35.632Z,98.33
2022-12-14T02:37:35.652Z,98.12
2022-12-14T02:38:35.640Z,98.18
2022-12-14T02:39:35.621Z,98.07
2022-12-14T02:40:35.593Z,97.86
2022-12-14T02:41:35.577Z,98.39
2022-12-14T02:42:35.565Z,98.01
2022-12-14T02:43:35.568Z,98.12
2022-12-14T02:44:35.597Z,98.12
2022-12-14T02:45:35.548Z,97.91
2022-12-14T02:46:35.540Z,98.01
2022-12-14T02:47:35.514Z,98.12
2022-12-14T02:48:35.519Z,98.12
2022-12-14T02:49:35.503Z,98.27
2022-12-14T02:50:35.534Z,98.22
2022-12-14T02:51:35.486Z,98.27
2022-12-14T02:52:35.501Z,98.22
2022-12-14T02:53:35.482Z,98.16
2022-12-14T02:54:35.449Z,98.05
2022-12-14T02:55:35.447Z,98.16
2022-12-14T02:56:35.420Z,98.38
2022-12-14T02:57:35.435Z,98.10
2022-12-14T02:58:35.401Z,98.16
2022-12-14T02:59:35.391Z,98.32
2022-12-14T03:00:35.445Z,98.21
2022-12-14T03:01:35.644Z,98.27
2022-12-14T03:02:35.516Z,98.52
2022-12-14T03:03:35.357Z,98.10
2022-12-14T03:04:35.338Z,98.21
2022-12-14T03:05:35.331Z,98.52
2022-12-14T03:06:35.339Z,97.99
2022-12-14T03:07:35.307Z,98.21
2022-12-14T03:08:35.294Z,97.99
2022-12-14T03:09:35.454Z,97.89
2022-12-14T03:10:35.284Z,98.32
2022-12-14T03:11:35.302Z,97.99
2022-12-14T03:12:35.263Z,97.57
2022-12-14T03:13:35.281Z,98.10
2022-12-14T03:14:35.233Z,97.93
2022-12-14T03:15:35.244Z,98.14
2022-12-14T03:16:35.365Z,98.25
2022-12-14T03:17:35.204Z,98.21
2022-12-14T03:18:35.195Z,98.25
2022-12-14T03:19:35.205Z,98.25
2022-12-14T03:20:35.173Z,98.36
2022-12-14T03:21:35.165Z,98.36
2022-12-14T03:22:35.151Z,98.36
2022-12-14T03:23:35.160Z,98.36
2022-12-14T03:24:35.167Z,98.36
2022-12-14T03:25:35.119Z,98.36
2022-12-14T03:26:35.120Z,98.36
2022-12-14T03:27:35.151Z,98.46
2022-12-14T03:28:35.087Z,98.25
2022-12-14T03:29:35.076Z,98.03
2022-12-14T03:30:58.772Z,98.08
2022-12-14T03:31:36.214Z,98.03
2022-12-14T03:32:35.047Z,98.14
2022-12-14T03:33:35.034Z,98.25
2022-12-14T03:34:35.023Z,98.03
2022-12-14T03:35:35.051Z,98.14
2022-12-14T03:36:35.056Z,98.25
2022-12-14T03:37:35.014Z,98.25
2022-12-14T03:38:35.026Z,98.03
2022-12-14T03:39:34.991Z,97.83
2022-12-14T03:40:35.001Z,97.83
2022-12-14T03:41:34.949Z,98.14
2022-12-14T03:42:34.952Z,97.93
2022-12-14T03:43:35.023Z,98.19
2022-12-14T03:44:39.067Z,97.93
2022-12-14T03:45:35.984Z,97.93
2022-12-14T03:46:34.909Z,98.03
2022-12-14T03:47:34.943Z,97.93
2022-12-14T03:48:34.893Z,97.93
2022-12-14T03:49:34.867Z,97.93
2022-12-14T03:50:34.880Z,98.14
2022-12-14T03:51:34.848Z,98.08
2022-12-14T03:52:34.832Z,98.03
2022-12-14T03:53:34.827Z,98.03
2022-12-14T03:54:34.822Z,98.25
2022-12-14T03:55:34.811Z,98.08
2022-12-14T03:56:34.824Z,98.14
2022-12-14T03:57:34.799Z,98.08
2022-12-14T03:58:34.794Z,98.08
2022-12-14T03:59:34.789Z,98.08
2022-12-14T04:00:34.788Z,97.76
2022-12-14T04:01:34.870Z,98.19
2022-12-14T04:02:39.192Z,98.08
2022-12-14T04:03:35.744Z,97.87
2022-12-14T04:04:34.704Z,97.76
2022-12-14T04:05:34.704Z,98.08
2022-12-14T04:06:34.693Z,97.87
2022-12-14T04:07:35.920Z,97.87
2022-12-14T04:08:34.683Z,97.87
2022-12-14T04:09:34.662Z,98.08
2022-12-14T04:10:34.667Z,97.87
2022-12-14T04:11:34.639Z,97.87
2022-12-14T04:12:34.621Z,97.87
2022-12-14T04:13:34.624Z,97.76
2022-12-14T04:14:34.603Z,97.81
2022-12-14T04:15:34.631Z,98.13
2022-12-14T04:16:34.630Z,98.13
2022-12-14T04:17:34.606Z,98.13
2022-12-14T04:18:34.595Z,98.02
2022-12-14T04:19:34.558Z,98.02
2022-12-14T04:20:34.558Z,98.13
2022-12-14T04:21:34.528Z,98.23
2022-12-14T04:22:34.536Z,98.13
2022-12-14T04:23:34.523Z,98.13
2022-12-14T04:24:34.494Z,98.13
2022-12-14T04:25:34.497Z,98.13
2022-12-14T04:26:34.490Z,98.02
2022-12-14T04:27:34.486Z,97.91
2022-12-14T04:28:34.481Z,97.91
2022-12-14T04:29:34.456Z,98.23
2022-12-14T04:30:34.454Z,98.34
2022-12-14T04:31:34.545Z,98.34
2022-12-14T04:32:34.478Z,98.23
2022-12-14T04:33:34.408Z,98.38
2022-12-14T04:34:34.395Z,98.34
2022-12-14T04:35:34.419Z,98.38
2022-12-14T04:36:34.383Z,98.38
2022-12-14T04:37:34.366Z,98.44
2022-12-14T04:38:34.341Z,98.28
2022-12-14T04:39:34.338Z,98.49
2022-12-14T04:40:34.357Z,98.60
2022-12-14T04:41:34.319Z,98.60
2022-12-14T04:42:34.887Z,98.38
2022-12-14T04:43:34.299Z,98.49
2022-12-14T04:44:34.321Z,98.49
2022-12-14T04:45:34.328Z,98.38
2022-12-14T04:46:40.214Z,98.55
2022-12-14T04:47:35.298Z,98.17
2022-12-14T04:48:34.248Z,98.28
2022-12-14T04:49:34.248Z,98.38
2022-12-14T04:50:34.248Z,98.23
2022-12-14T04:51:34.212Z,98.23
2022-12-14T04:52:34.226Z,98.17
2022-12-14T04:53:34.197Z,98.34
2022-12-14T04:54:34.176Z,97.96
2022-12-14T04:55:34.215Z,98.17
2022-12-14T04:56:34.152Z,98.13
2022-12-14T04:57:34.146Z,97.96
2022-12-14T04:58:34.169Z,98.07
2022-12-14T04:59:34.171Z,97.91
2022-12-14T05:00:34.161Z,98.02
2022-12-14T05:01:34.344Z,98.13
2022-12-14T05:02:34.185Z,98.13
2022-12-14T05:03:34.104Z,98.13
2022-12-14T05:04:34.077Z,98.17
2022-12-14T05:05:34.059Z,97.96
2022-12-14T05:06:34.179Z,97.96
2022-12-14T05:07:34.051Z,97.96
2022-12-14T05:08:34.024Z,97.96
2022-12-14T05:09:34.020Z,98.49
2022-12-14T05:10:34.019Z,98.28
2022-12-14T05:12:34.984Z,98.17
2022-12-14T05:13:34.006Z,98.07
2022-12-14T05:14:34.004Z,98.28
2022-12-14T05:15:33.948Z,98.28
2022-12-14T05:16:34.017Z,98.38
2022-12-14T05:17:33.954Z,98.38
2022-12-14T05:18:33.930Z,98.34
2022-12-14T05:19:33.940Z,98.38
2022-12-14T05:20:33.907Z,98.28
2022-12-14T05:21:33.894Z,97.96
2022-12-14T05:22:33.877Z,98.07
2022-12-14T05:23:33.885Z,98.28
2022-12-14T05:24:33.867Z,98.38
2022-12-14T05:25:33.845Z,98.17
2022-12-14T05:26:33.849Z,98.38
2022-12-14T05:27:33.830Z,98.28
2022-12-14T05:28:33.847Z,98.60
2022-12-14T05:29:33.811Z,98.49
2022-12-14T05:30:33.838Z,98.49
2022-12-14T05:31:33.779Z,98.49
2022-12-14T05:32:33.785Z,98.49
2022-12-14T05:33:33.776Z,98.38
2022-12-14T05:34:33.767Z,98.43
2022-12-14T05:35:33.766Z,98.75
2022-12-14T05:36:33.753Z,98.64
2022-12-14T05:37:33.716Z,98.43
2022-12-14T05:38:33.707Z,98.11
2022-12-14T05:39:33.708Z,98.21
2022-12-14T05:40:33.684Z,97.78
2022-12-14T05:41:33.700Z,97.78
2022-12-14T05:42:33.727Z,98.21
2022-12-14T05:43:33.651Z,98.11
2022-12-14T05:44:33.639Z,98.21
2022-12-14T05:45:33.650Z,97.78
2022-12-14T05:46:33.619Z,98.11
2022-12-14T05:47:33.620Z,98.00
2022-12-14T05:48:33.602Z,98.32
2022-12-14T05:49:33.584Z,98.00
2022-12-14T05:50:33.603Z,97.89
2022-12-14T05:51:33.597Z,98.32
2022-12-14T05:52:33.564Z,97.89
2022-12-14T05:53:33.544Z,98.00
2022-12-14T05:54:33.580Z,98.00
2022-12-14T05:55:33.521Z,98.00
2022-12-14T05:56:33.526Z,98.21
2022-12-14T05:57:33.526Z,98.07
2022-12-14T05:58:33.495Z,98.11
2022-12-14T05:59:33.489Z,98.43
2022-12-14T06:00:33.473Z,98.11
2022-12-14T06:01:33.497Z,98.11
2022-12-14T06:02:33.505Z,98.21
2022-12-14T06:03:33.464Z,98.11
2022-12-14T06:04:33.537Z,98.32
2022-12-14T06:05:33.437Z,98.07
2022-12-14T06:06:33.405Z,98.28
2022-12-14T06:07:33.429Z,98.38
2022-12-14T06:08:33.395Z,98.60
2022-12-14T06:09:33.372Z,98.28
2022-12-14T06:10:33.382Z,98.07
2022-12-14T06:11:33.886Z,98.07
2022-12-14T06:12:33.340Z,98.60
2022-12-14T06:13:33.333Z,98.49
2022-12-14T06:14:33.359Z,98.28
2022-12-14T06:15:34.231Z,98.28
2022-12-14T06:16:33.331Z,98.49
2022-12-14T06:17:33.284Z,98.38
2022-12-14T06:18:33.275Z,98.60
2022-12-14T06:19:33.284Z,98.49
2022-12-14T06:20:33.259Z,98.38
2022-12-14T06:21:33.264Z,98.38
2022-12-14T06:22:33.247Z,98.28
2022-12-14T06:23:33.239Z,98.34
2022-12-14T06:24:33.213Z,98.38
2022-12-14T06:25:33.196Z,98.34
2022-12-14T06:26:33.217Z,98.34
2022-12-14T06:27:33.180Z,98.34
2022-12-14T06:28:33.204Z,98.23
2022-12-14T06:29:33.161Z,97.91
2022-12-14T06:30:33.154Z,98.02
2022-12-14T06:31:33.177Z,97.91
2022-12-14T06:32:33.125Z,97.91
2022-12-14T06:33:33.115Z,98.08
2022-12-14T06:34:38.522Z,98.19
2022-12-14T06:35:34.097Z,98.08
2022-12-14T06:36:33.087Z,98.08
2022-12-14T06:37:33.072Z,98.08
2022-12-14T06:38:33.088Z,98.08
2022-12-14T06:39:33.080Z,98.19
2022-12-14T06:40:33.082Z,98.19
2022-12-14T06:41:33.028Z,98.08
2022-12-14T06:42:33.022Z,98.08
2022-12-14T06:43:33.035Z,97.87
2022-12-14T06:44:32.992Z,98.08
2022-12-14T06:45:33.008Z,98.14
2022-12-14T06:46:33.038Z,97.97
2022-12-14T06:47:32.966Z,97.97
2022-12-14T06:48:32.983Z,97.93
2022-12-14T06:49:32.949Z,98.03
2022-12-14T06:50:32.936Z,97.83
2022-12-14T06:51:32.942Z,97.93
2022-12-14T06:52:32.919Z,97.83
2022-12-14T06:53:32.903Z,98.03
2022-12-14T06:54:32.919Z,98.03
2022-12-14T06:55:32.907Z,98.14
2022-12-14T06:56:32.890Z,98.03
2022-12-14T06:57:32.870Z,98.14
2022-12-14T06:58:32.848Z,98.03
2022-12-14T06:59:32.840Z,97.83
2022-12-14T07:00:32.859Z,97.67
2022-12-14T07:01:32.997Z,98.03
2022-12-14T07:02:33.016Z,98.10
2022-12-14T07:03:33.068Z,97.78
2022-12-14T07:04:32.819Z,98.52
2022-12-14T07:05:32.775Z,97.78
2022-12-14T07:06:32.788Z,97.57
2022-12-14T07:07:32.771Z,97.78
2022-12-14T07:08:32.751Z,97.78
2022-12-14T07:09:32.734Z,97.78
2022-12-14T07:10:32.752Z,97.83
2022-12-14T07:11:32.797Z,97.99
2022-12-14T07:12:32.701Z,97.67
2022-12-14T07:13:32.697Z,98.32
2022-12-14T07:14:32.687Z,97.78
2022-12-14T07:15:32.724Z,97.78
2022-12-14T07:16:32.704Z,98.10
2022-12-14T07:17:32.658Z,98.05
2022-12-14T07:18:32.634Z,97.78
2022-12-14T07:19:32.644Z,97.63
2022-12-14T07:20:32.622Z,97.74
2022-12-14T07:21:32.616Z,97.74
2022-12-14T07:22:32.596Z,98.27
2022-12-14T07:23:32.958Z,98.48
2022-12-14T07:24:32.577Z,97.74
2022-12-14T07:25:32.618Z,97.74
2022-12-14T07:26:32.555Z,97.78
2022-12-14T07:27:32.569Z,97.67
2022-12-14T07:28:32.536Z,97.74
2022-12-14T07:29:34.852Z,97.63
2022-12-14T07:30:32.515Z,97.63
2022-12-14T07:31:32.526Z,97.95
2022-12-14T07:32:32.482Z,98.05
2022-12-14T07:33:32.473Z,98.05
2022-12-14T07:34:32.491Z,98.12
2022-12-14T07:35:32.455Z,97.59
2022-12-14T07:36:32.459Z,98.05
2022-12-14T07:37:32.434Z,97.80
2022-12-14T07:38:32.430Z,97.95
2022-12-14T07:39:32.437Z,97.91
2022-12-14T07:40:32.399Z,98.01
2022-12-14T07:41:32.432Z,97.91
2022-12-14T07:42:32.392Z,98.01
2022-12-14T07:43:32.400Z,98.01
2022-12-14T07:44:32.398Z,97.75
2022-12-14T07:45:32.369Z,98.01
2022-12-14T07:46:32.719Z,97.75
2022-12-14T07:47:32.326Z,97.86
2022-12-14T07:48:32.326Z,97.75
2022-12-14T07:49:32.311Z,97.86
2022-12-14T07:50:32.300Z,97.86
2022-12-14T07:51:32.326Z,97.65
2022-12-14T07:52:37.260Z,97.92
2022-12-14T07:53:33.269Z,97.97
2022-12-14T07:54:32.277Z,97.97
2022-12-14T07:55:32.247Z,98.07
2022-12-14T07:56:32.271Z,97.86
2022-12-14T07:57:32.243Z,98.18
2022-12-14T07:58:32.225Z,98.24
2022-12-14T07:59:32.245Z,98.14
2022-12-14T08:00:32.202Z,97.92
2022-12-14T08:01:32.394Z,97.61
2022-12-14T08:02:32.302Z,97.75
2022-12-14T08:03:32.449Z,97.71
2022-12-14T08:04:32.190Z,97.61
2022-12-14T08:05:32.142Z,97.71
2022-12-14T08:06:32.155Z,97.71
2022-12-14T08:07:32.123Z,97.08
2022-12-14T08:08:32.113Z,97.18
2022-12-14T08:09:32.103Z,97.08
2022-12-14T08:10:35.755Z,97.08
2022-12-14T08:11:33.107Z,96.97
2022-12-14T08:12:32.067Z,96.92
2022-12-14T08:13:32.396Z,96.72
2022-12-14T08:14:32.049Z,96.72
2022-12-14T08:15:32.088Z,96.82
2022-12-14T08:16:32.118Z,97.03
2022-12-14T08:17:32.017Z,97.24
2022-12-14T08:18:32.004Z,97.24
2022-12-14T08:19:31.991Z,97.09
2022-12-14T08:20:31.990Z,97.03
2022-12-14T08:21:32.000Z,96.92
2022-12-14T08:22:31.984Z,96.82
2022-12-14T08:23:32.575Z,96.78
2022-12-14T08:24:31.936Z,96.98
2022-12-14T08:25:31.930Z,96.78
2022-12-14T08:26:35.840Z,96.56
2022-12-14T08:27:31.907Z,96.56
2022-12-14T08:28:31.894Z,96.52
2022-12-14T08:29:31.899Z,95.82
2022-12-14T08:30:31.873Z,96.56
2022-12-14T08:31:32.040Z,96.20
2022-12-14T08:32:34.440Z,96.09
2022-12-14T08:33:32.403Z,96.42
2022-12-14T08:34:31.829Z,96.20
2022-12-14T08:35:31.826Z,96.42
2022-12-14T08:36:31.804Z,96.42
2022-12-14T08:37:31.802Z,96.31
2022-12-14T08:38:31.807Z,96.20
2022-12-14T08:39:31.773Z,96.16
2022-12-14T08:40:31.769Z,95.99
2022-12-14T08:41:31.782Z,95.89
2022-12-14T08:42:31.744Z,96.31
2022-12-14T08:43:32.113Z,96.26
2022-12-14T08:44:31.718Z,96.16
2022-12-14T08:45:31.704Z,96.20
2022-12-14T08:46:31.815Z,96.16
2022-12-14T08:47:31.713Z,96.16
2022-12-14T08:48:31.684Z,95.95
2022-12-14T08:49:32.548Z,96.16
2022-12-14T08:50:31.654Z,96.26
2022-12-14T08:51:31.667Z,95.95
2022-12-14T08:52:31.636Z,95.84
2022-12-14T08:53:32.571Z,95.63
2022-12-14T08:54:31.636Z,96.01
2022-12-14T08:55:38.287Z,95.69
2022-12-14T08:56:32.612Z,95.69
2022-12-14T08:57:31.578Z,95.69
2022-12-14T08:58:31.576Z,95.80
2022-12-14T09:00:00.340Z,95.48
2022-12-14T09:00:32.660Z,95.27
2022-12-14T09:01:34.141Z,95.48
2022-12-14T09:02:31.659Z,95.37
2022-12-14T09:03:32.103Z,95.37
2022-12-14T09:04:31.513Z,95.37
2022-12-14T09:05:31.523Z,95.33
2022-12-14T09:06:31.503Z,95.54
2022-12-14T09:07:31.473Z,95.54
2022-12-14T09:08:31.464Z,95.54
2022-12-14T09:09:31.450Z,95.23
2022-12-14T09:10:31.446Z,95.54
2022-12-14T09:11:31.451Z,95.92
2022-12-14T09:12:31.417Z,95.65
2022-12-14T09:13:31.826Z,95.54
2022-12-14T09:14:31.420Z,95.07
2022-12-14T09:15:31.387Z,95.07
2022-12-14T09:16:31.422Z,94.87
2022-12-14T09:17:31.388Z,95.50
2022-12-14T09:18:31.876Z,95.07
2022-12-14T09:19:31.343Z,95.39
2022-12-14T09:20:31.334Z,94.34
2022-12-14T09:21:31.368Z,94.65
2022-12-14T09:22:31.320Z,94.34
2022-12-14T09:23:31.900Z,94.13
2022-12-14T09:24:31.299Z,94.19
2022-12-14T09:25:31.278Z,93.87
2022-12-14T09:26:31.276Z,94.40
2022-12-14T09:27:31.287Z,94.29
2022-12-14T09:28:31.289Z,93.98
2022-12-14T09:29:31.239Z,93.98
2022-12-14T09:30:31.234Z,94.15
2022-12-14T09:31:31.256Z,94.19
2022-12-14T09:32:31.207Z,94.19
2022-12-14T09:33:31.697Z,93.77
2022-12-14T09:34:31.183Z,93.87
2022-12-14T09:35:31.178Z,93.73
2022-12-14T09:36:31.160Z,94.04
2022-12-14T09:37:31.150Z,94.04
2022-12-14T09:38:31.170Z,94.04
2022-12-14T09:39:31.159Z,93.68
2022-12-14T09:40:31.152Z,94.00
2022-12-14T09:41:31.121Z,93.68
2022-12-14T09:42:31.096Z,92.73
2022-12-14T09:43:37.078Z,93.05
2022-12-14T09:44:32.094Z,93.26
2022-12-14T09:45:31.138Z,92.94
2022-12-14T09:46:31.173Z,92.20
2022-12-14T09:47:31.045Z,92.20
2022-12-14T09:48:31.762Z,92.31
2022-12-14T09:49:31.029Z,92.10
2022-12-14T09:50:31.021Z,92.41
2022-12-14T09:51:31.111Z,92.37
2022-12-14T09:52:31.021Z,92.48
2022-12-14T09:53:31.346Z,92.37
2022-12-14T09:54:30.966Z,91.85
2022-12-14T09:55:30.957Z,92.48
2022-12-14T09:56:30.971Z,92.79
2022-12-14T09:57:30.958Z,92.16
2022-12-14T09:58:31.384Z,91.28
2022-12-14T09:59:30.937Z,91.28
2022-12-14T10:00:30.899Z,91.17
2022-12-14T10:01:31.022Z,90.92
2022-12-14T10:02:32.291Z,91.17
2022-12-14T10:03:31.522Z,91.34
2022-12-14T10:04:30.905Z,90.98
2022-12-14T10:05:30.844Z,91.34
2022-12-14T10:06:30.867Z,91.41
2022-12-14T10:07:34.345Z,91.41
2022-12-14T10:08:31.297Z,91.09
2022-12-14T10:09:30.803Z,91.57
2022-12-14T10:10:30.813Z,91.51
2022-12-14T10:11:30.808Z,91.41
2022-12-14T10:12:34.228Z,91.41
2022-12-14T10:13:31.387Z,91.19
2022-12-14T10:14:30.761Z,91.26
2022-12-14T10:15:30.759Z,91.05
2022-12-14T10:16:30.800Z,91.15
2022-12-14T10:17:30.753Z,90.83
2022-12-14T10:19:31.765Z,90.83
2022-12-14T10:20:30.684Z,90.52
2022-12-14T10:21:30.678Z,91.05
2022-12-14T10:22:30.688Z,91.15
2022-12-14T10:23:30.654Z,91.15
2022-12-14T10:24:30.648Z,91.11
2022-12-14T10:25:30.633Z,91.00
2022-12-14T10:26:30.619Z,91.15
2022-12-14T10:27:38.118Z,91.32
2022-12-14T10:28:32.207Z,90.94
2022-12-14T10:29:30.589Z,90.41
2022-12-14T10:30:30.578Z,90.83
2022-12-14T10:31:30.630Z,90.62
2022-12-14T10:32:30.583Z,90.20
2022-12-14T10:33:30.558Z,90.20
2022-12-14T10:34:30.531Z,90.37
2022-12-14T10:35:30.523Z,90.26
2022-12-14T10:36:30.530Z,90.26
2022-12-14T10:37:30.507Z,90.06
2022-12-14T10:38:30.962Z,90.01
2022-12-14T10:39:30.477Z,90.06
2022-12-14T10:40:34.077Z,90.06
2022-12-14T10:41:30.457Z,90.06
2022-12-14T10:42:30.461Z,90.06
2022-12-14T10:43:30.432Z,90.06
2022-12-14T10:44:30.447Z,90.16
2022-12-14T10:45:40.394Z,89.84
2022-12-14T10:46:31.493Z,90.16
2022-12-14T10:47:30.392Z,89.95
2022-12-14T10:48:30.783Z,89.84
2022-12-14T10:49:30.376Z,89.42
2022-12-14T10:50:30.384Z,89.84
2022-12-14T10:51:30.349Z,89.32
2022-12-14T10:52:30.356Z,89.59
2022-12-14T10:53:31.690Z,89.32
2022-12-14T10:54:30.314Z,89.74
2022-12-14T10:55:30.305Z,90.16
2022-12-14T10:56:30.417Z,89.74
2022-12-14T10:57:30.420Z,90.06
2022-12-14T10:58:30.773Z,90.23
2022-12-14T10:59:38.562Z,90.33
2022-12-14T11:00:31.285Z,90.26
2022-12-14T11:01:30.417Z,89.95
2022-12-14T11:02:30.421Z,90.16
2022-12-14T11:03:30.320Z,89.84
2022-12-14T11:04:30.208Z,90.26
2022-12-14T11:05:36.004Z,90.01
2022-12-14T11:06:31.209Z,89.84
2022-12-14T11:07:30.335Z,90.37
2022-12-14T11:08:30.531Z,90.26
2022-12-14T11:09:30.151Z,89.00
2022-12-14T11:10:30.142Z,89.17
2022-12-14T11:11:30.227Z,89.64
2022-12-14T11:12:30.127Z,89.32
2022-12-14T11:13:30.103Z,89.42
2022-12-14T11:14:30.101Z,90.16
2022-12-14T11:15:30.084Z,90.16
2022-12-14T11:16:35.717Z,89.91
2022-12-14T11:17:31.320Z,89.74
2022-12-14T11:18:30.531Z,89.28
2022-12-14T11:19:30.043Z,89.17
2022-12-14T11:20:30.039Z,89.22
2022-12-14T11:21:30.024Z,88.75
2022-12-14T11:22:30.032Z,89.28
2022-12-14T11:23:30.003Z,89.03
2022-12-14T11:24:29.984Z,88.75
2022-12-14T11:25:29.979Z,88.44
2022-12-14T11:26:29.975Z,88.44
2022-12-14T11:27:29.981Z,88.29
2022-12-14T11:28:36.017Z,88.12
2022-12-14T11:29:31.013Z,87.60
2022-12-14T11:30:29.957Z,88.08
2022-12-14T11:31:29.953Z,87.76
2022-12-14T11:32:29.902Z,87.98
2022-12-14T11:33:29.894Z,87.49
2022-12-14T11:34:29.915Z,87.24
2022-12-14T11:35:29.872Z,87.18
2022-12-14T11:36:29.861Z,86.96
2022-12-14T11:37:29.850Z,86.96
2022-12-14T11:38:30.243Z,86.65
2022-12-14T11:39:29.828Z,87.81
2022-12-14T11:40:29.839Z,87.45
2022-12-14T11:41:29.813Z,87.24
2022-12-14T11:42:29.791Z,87.24
2022-12-14T11:43:29.785Z,87.13
2022-12-14T11:44:29.790Z,87.76
2022-12-14T11:45:29.762Z,87.45
2022-12-14T11:46:29.819Z,87.55
2022-12-14T11:47:29.734Z,87.73
2022-12-14T11:48:30.119Z,87.45
2022-12-14T11:49:29.742Z,87.87
2022-12-14T11:50:29.703Z,87.52
2022-12-14T11:51:29.702Z,88.46
2022-12-14T11:52:29.716Z,88.78
2022-12-14T11:53:29.677Z,88.35
2022-12-14T11:54:29.683Z,88.35
2022-12-14T11:55:29.668Z,88.78
2022-12-14T11:56:29.666Z,88.78
2022-12-14T11:57:29.666Z,88.78
2022-12-14T11:58:30.046Z,89.09
2022-12-14T11:59:29.610Z,88.84
2022-12-14T12:00:29.616Z,88.63
2022-12-14T12:01:29.663Z,88.57
2022-12-14T12:02:29.605Z,87.68
2022-12-14T12:03:29.618Z,87.68
2022-12-14T12:04:29.584Z,87.16
2022-12-14T12:05:29.564Z,87.62
2022-12-14T12:06:29.554Z,87.27
2022-12-14T12:07:29.557Z,87.79
2022-12-14T12:08:29.882Z,87.37
2022-12-14T12:09:29.498Z,87.27
2022-12-14T12:10:29.496Z,86.74
2022-12-14T12:11:29.479Z,87.16
2022-12-14T12:12:29.487Z,86.53
2022-12-14T12:13:29.464Z,86.63
2022-12-14T12:14:29.446Z,86.74
2022-12-14T12:15:29.498Z,86.70
2022-12-14T12:16:29.519Z,87.33
2022-12-14T12:17:29.415Z,87.33
2022-12-14T12:18:29.901Z,87.12
2022-12-14T12:19:29.391Z,87.23
2022-12-14T12:20:29.399Z,87.02
2022-12-14T12:21:29.370Z,87.23
2022-12-14T12:22:29.363Z,86.70
2022-12-14T12:23:29.717Z,87.54
2022-12-14T12:24:29.344Z,87.44
2022-12-14T12:25:35.187Z,87.54
2022-12-14T12:26:30.317Z,87.65
2022-12-14T12:27:29.305Z,87.65
2022-12-14T12:28:29.760Z,87.85
2022-12-14T12:29:29.288Z,88.17
2022-12-14T12:30:29.276Z,88.45
2022-12-14T12:31:29.294Z,88.02
2022-12-14T12:32:29.257Z,87.44
2022-12-14T12:33:29.263Z,87.44
2022-12-14T12:34:29.230Z,87.02
2022-12-14T12:35:29.222Z,87.12
2022-12-14T12:36:29.204Z,87.02
2022-12-14T12:37:29.220Z,87.65
2022-12-14T12:38:29.780Z,87.50
2022-12-14T12:39:29.175Z,88.13
2022-12-14T12:40:29.186Z,88.24
2022-12-14T12:41:29.800Z,88.24
2022-12-14T12:42:29.140Z,87.92
2022-12-14T12:43:29.137Z,87.08
2022-12-14T12:44:29.120Z,87.08
2022-12-14T12:45:29.138Z,86.55
2022-12-14T12:46:29.157Z,86.45
2022-12-14T12:47:38.425Z,86.45
2022-12-14T12:48:30.453Z,86.24
2022-12-14T12:49:29.089Z,86.77
2022-12-14T12:50:29.053Z,87.08
2022-12-14T12:51:29.045Z,86.35
2022-12-14T12:52:29.034Z,86.98
2022-12-14T12:53:29.029Z,86.55
2022-12-14T12:54:29.041Z,86.94